x

San Clemente Basin - 27nm Se Of San Clemente Is, Ca (46086) Wave Buoy

12:50am - Sat 23rd Sep 2017 All times are PDT. -7 hours from GMT.

  • Sig Wave height 5.2ft
  • Swell Direction
  • Peak Period 7s
  • Average Period 6s
  • Wind
    16mph, 20mph gusts
  • Sea Temp 70°f
  • Air Temp 65°f
  • Sea Pressure 1010.2mb
  • San Clemente Basin - 27nm Se Of San Clemente Is, Ca
  • San Clemente Basin - 27nm Se Of San Clemente Is, Ca

More Historic Weather Station data

Upgrade to MSW Pro to gain access to the past 30 days of data for over 8000 Wavebouys and Weather Stations around the globe.

Join

Comparision Forecast

View Surf forecast
   
Sat 09/23 12:50am 5ft 7s 6s 16 20 mph 1010.2mb 70f 65f
Fri 09/22 11:50pm 5ft 11s 5s 16 20 mph 1010.1mb 70f 65f
10:50pm 5ft 11s 6s 20 25 mph 1010.3mb 70f 65f
9:50pm 5.5ft 7s 5s 20 25 mph 1010.4mb 70f 65f
8:50pm 5.5ft 7s 5s 20 22 mph 1010.3mb 70f 65f
7:50pm 6ft 8s 5s 22 25 mph 1010mb 70f 65f
6:50pm 6ft 6s 6s 20 25 mph 1009.8mb 70f 66f
5:50pm 6ft 8s 6s 20 22 mph 1009.9mb 70f 66f
4:50pm 6ft 8s 6s 20 25 mph 1009.9mb 70f 66f
3:50pm 5.5ft 8s 6s 18 22 mph 1010.3mb 70f 66f
2:50pm 5ft 8s 6s 18 22 mph 1010.6mb 70f 66f
1:50pm 5.5ft 8s 6s 16 18 mph 1011mb 70f 66f
12:50pm 5ft 11s 6s 9 11 mph 1011.7mb 70f 66f
11:50am 6ft 8s 7s 9 11 mph 1011.8mb 70f 65f
10:50am 6ft 8s 6s 11 13 mph 1012.1mb 70f 65f
9:50am 6ft 8s 6s 13 18 mph 1012.1mb 70f 65f
8:50am 6ft 11s 6s 13 18 mph 1011.5mb 70f 65f
7:50am 6ft 8s 6s 13 16 mph 1011.1mb 70f 65f
6:50am 6ft 8s 6s 13 16 mph 1010.9mb 70f 65f
5:50am 6.5ft 8s  -  13 16 mph 1010.7mb 70f 65f
4:50am 6.5ft 8s 6s 11 16 mph 1010.5mb 70f 64f
3:50am 7ft 9s 6s 16 18 mph 1010.5mb 70f 65f
2:50am 7ft 8s 6s 16 20 mph 1010.8mb 70f 64f
1:50am 7ft 8s 6s 18 22 mph 1010.8mb 70f 65f
12:50am 8ft 9s 6s 20 25 mph 1010.7mb 70f 65f
Thu 09/21 11:50pm 8ft 8s 6s 20 25 mph 1011.1mb 70f 65f
10:50pm 7ft 7s 6s 22 27 mph 1011.3mb 70f 65f
9:50pm 7ft 7s  -  22 27 mph 1011.5mb 70f 65f
8:50pm 6ft 7s 5s 22 27 mph 1011.3mb 71f 66f
7:50pm 6ft 12s 6s 20 22 mph 1011.2mb 71f 65f
6:50pm 6ft 6s 6s 20 25 mph 1010.9mb 71f 66f
5:50pm 6ft 7s 6s 22 27 mph 1010.9mb 71f 66f
4:50pm 5.5ft 12s 5s 22 27 mph 1011.1mb 71f 67f
3:50pm 6ft 7s 6s 20 25 mph 1011.2mb 71f 67f
2:50pm 6ft 13s 6s 20 25 mph 1011.5mb 71f 67f
1:50pm 5.5ft 11s 6s 20 25 mph 1011.7mb 71f 67f
12:50pm 5ft 13s 5s 22 25 mph 1012mb 71f 68f
11:50am 4.5ft 11s 5s 18 20 mph 1012.5mb 70f 67f
10:50am 4.5ft 13s 6s 18 20 mph 1012.5mb 70f 67f
9:50am 4.5ft 12s 6s 16 18 mph 1012.6mb 70f 67f
8:50am 4.5ft 11s 6s 13 16 mph 1012.2mb 70f 67f
7:50am 4.5ft 14s 6s 16 18 mph 1011.6mb 70f 67f
6:50am 4.5ft 11s 6s 13 16 mph 1011.3mb 71f 67f
5:50am 4.5ft 12s 6s 16 18 mph 1011.2mb 71f 67f
4:50am 4.5ft 12s 6s 13 16 mph 1010.8mb 71f 67f
3:50am 4ft 11s 7s 4 4 mph 1010.7mb 71f 68f
2:50am 4ft 14s 7s  -  2 mph 1011mb 71f 68f
1:50am 4ft 12s 7s 2 4 mph 1011.2mb 71f 68f
12:50am 3.5ft 14s 7s 4 7 mph 1011.3mb 71f 68f
Wed 09/20 11:50pm 4ft 14s 7s 7 9 mph 1011.4mb 71f 68f
10:50pm 4.5ft 14s 8s 4 7 mph 1011.4mb 71f 67f
9:50pm 4.5ft 9s 7s 4 9 mph 1011.2mb 71f 67f
8:50pm 4.5ft 9s 8s  -  0 mph 1011.1mb 71f 67f
7:50pm 5ft 13s 8s 2 2 mph 1010.5mb 71f 67f
6:50pm 4.5ft 14s 8s 4 7 mph 1010.4mb 71f 67f
5:50pm 4.5ft 15s 8s 4 7 mph 1010.7mb 71f 67f
4:50pm 4.5ft 14s 7s 4 7 mph 1010.7mb 71f 67f
3:50pm 4.5ft 15s 7s 7 9 mph 1011.3mb 71f 67f
2:50pm 5ft 15s 7s 7 9 mph 1011.6mb 71f 68f
1:50pm 5ft 8s 7s 9 11 mph 1012.2mb 71f 67f
12:50pm 5ft 9s 7s 9 11 mph 1012.7mb 71f 67f
11:50am 4.5ft 9s 7s 9 11 mph 1013.1mb 71f 67f
10:50am 4.5ft 9s 7s 11 13 mph 1013.1mb 71f 67f
9:50am 4.5ft 8s 7s 11 13 mph 1013.2mb 71f 67f
8:50am 4.5ft 9s 7s 9 9 mph 1012.8mb 70f 66f
7:50am 4.5ft 8s 7s 9 11 mph 1012.2mb 71f 66f
6:50am 4.5ft 8s 6s 9 11 mph 1011.7mb 71f 67f
5:50am 4.5ft 8s 6s 7 9 mph 1011.4mb 71f 67f
4:50am 4.5ft 7s 6s 7 9 mph 1011.3mb 71f 67f
3:50am 4ft 8s 6s 7 9 mph 1011.4mb 71f 67f
2:50am 4ft 8s 6s 7 9 mph 1011.7mb 71f 67f
1:50am 3.5ft 8s 6s 2 4 mph 1012.1mb 71f 68f
12:50am 3.5ft 6s 6s 2 4 mph 1012.3mb 71f 67f
Tue 09/19 11:50pm 3.5ft 8s 6s 9 11 mph 1012.4mb 71f 68f
10:50pm 3.5ft 8s 6s 11 11 mph 1012.3mb 71f 68f
9:50pm 3.5ft 8s 6s 13 13 mph 1012.2mb 71f 68f
8:50pm 3.5ft 8s 6s 13 16 mph 1012mb 71f 69f
7:50pm 3.5ft 8s 6s 13 16 mph 1011.5mb 71f 68f
6:50pm 3.5ft 8s 6s 13 16 mph 1011.3mb 71f 67f
5:50pm 3.5ft 8s  -  9 11 mph 1011.7mb 71f 67f
4:50pm 3.5ft 8s 5s 9 11 mph 1012mb 71f 67f
3:50pm 3.5ft 8s 5s 13 16 mph 1012.1mb 71f 67f
2:50pm 3.5ft 7s 5s 13 16 mph 1012.4mb 71f 67f
1:50pm 4ft 7s 6s 13 18 mph 1012.7mb 71f 68f
12:50pm 3.5ft 7s 6s 7 9 mph 1013.4mb 71f 69f
11:50am 3.5ft 7s 6s 4 7 mph 1013.9mb 71f 69f
10:50am 3.5ft 7s 6s 4 4 mph 1014.3mb 71f 68f
9:50am 3.5ft 6s 6s 4 7 mph 1014.2mb 71f 68f